createdAt,value
2018-03-26T00:01:42.814Z,10.90
2018-03-26T00:04:11.679Z,11.43
2018-03-26T00:06:40.635Z,12.20
2018-03-26T00:09:09.497Z,12.47
2018-03-26T00:11:38.353Z,11.77
2018-03-26T00:14:07.291Z,13.60
2018-03-26T00:16:36.150Z,13.40
2018-03-26T00:19:04.998Z,13.07
2018-03-26T00:21:33.888Z,12.73
2018-03-26T00:24:02.758Z,13.20
2018-03-26T00:26:31.898Z,12.57
2018-03-26T00:29:00.742Z,12.33
2018-03-26T00:31:29.594Z,12.87
2018-03-26T00:33:58.485Z,12.53
2018-03-26T00:36:27.414Z,12.70
2018-03-26T00:38:56.271Z,11.60
2018-03-26T00:41:25.430Z,12.90
2018-03-26T00:43:54.353Z,11.73
2018-03-26T00:46:23.206Z,11.13
2018-03-26T00:48:53.380Z,13.43
2018-03-26T00:51:22.232Z,11.93
2018-03-26T00:53:51.092Z,11.43
2018-03-26T00:56:19.975Z,11.73
2018-03-26T00:58:48.837Z,11.40
2018-03-26T01:01:17.750Z,11.63
2018-03-26T01:03:46.602Z,12.30
2018-03-26T01:06:15.470Z,11.33
2018-03-26T01:08:46.416Z,12.20
2018-03-26T01:11:15.267Z,11.80
2018-03-26T01:13:45.427Z,11.73
2018-03-26T01:16:14.282Z,11.60
2018-03-26T01:18:43.138Z,11.97
2018-03-26T01:21:12.041Z,12.57
2018-03-26T01:23:40.898Z,12.73
2018-03-26T01:26:09.755Z,12.60
2018-03-26T01:28:38.659Z,12.27
2018-03-26T01:31:07.640Z,12.43
2018-03-26T01:33:36.483Z,12.20
2018-03-26T01:36:05.390Z,13.33
2018-03-26T01:38:34.274Z,12.80
2018-03-26T01:41:03.115Z,12.13
2018-03-26T01:43:32.024Z,13.23
2018-03-26T01:46:00.879Z,13.10
2018-03-26T01:48:29.903Z,13.33
2018-03-26T01:50:59.506Z,13.47
2018-03-26T01:53:28.363Z,12.70
2018-03-26T01:55:57.226Z,12.77
2018-03-26T01:58:26.178Z,13.40
2018-03-26T02:00:55.029Z,12.60
2018-03-26T02:03:23.883Z,12.50
2018-03-26T02:05:52.926Z,12.17
2018-03-26T02:08:21.771Z,11.50
2018-03-26T02:10:50.631Z,11.77
2018-03-26T02:13:20.247Z,11.43
2018-03-26T02:15:49.094Z,11.73
2018-03-26T02:18:17.966Z,12.20
2018-03-26T02:20:46.867Z,10.97
2018-03-26T02:23:15.731Z,11.30
2018-03-26T02:25:44.586Z,10.77
2018-03-26T02:28:13.513Z,11.20
2018-03-26T02:30:42.360Z,12.20
2018-03-26T02:33:11.224Z,13.80
2018-03-26T02:35:40.263Z,13.23
2018-03-26T02:38:09.117Z,12.50
2018-03-26T02:40:37.978Z,12.30
2018-03-26T02:43:07.253Z,12.33
2018-03-26T02:45:36.114Z,11.37
2018-03-26T02:48:05.331Z,10.80
2018-03-26T02:50:34.184Z,11.80
2018-03-26T02:53:03.040Z,11.50
2018-03-26T02:55:31.940Z,11.07
2018-03-26T02:58:00.787Z,12.03
2018-03-26T03:00:29.996Z,11.13
2018-03-26T03:02:58.854Z,10.90
2018-03-26T03:05:27.707Z,11.17
2018-03-26T03:07:56.634Z,11.00
2018-03-26T03:10:25.497Z,11.40
2018-03-26T03:12:54.346Z,11.97
2018-03-26T03:15:23.543Z,10.87
2018-03-26T03:17:52.398Z,10.87
2018-03-26T03:20:21.247Z,10.37
2018-03-26T03:22:50.159Z,11.23
2018-03-26T03:25:19.018Z,11.00
2018-03-26T03:27:47.878Z,10.77
2018-03-26T03:30:17.548Z,10.10
2018-03-26T03:32:46.399Z,11.10
2018-03-26T03:35:15.248Z,10.80
2018-03-26T03:37:44.483Z,10.93
2018-03-26T03:40:13.342Z,11.40
2018-03-26T03:42:42.195Z,11.53
2018-03-26T03:45:11.998Z,10.97
2018-03-26T03:47:40.855Z,11.57
2018-03-26T03:50:10.124Z,10.57
2018-03-26T03:52:38.969Z,10.93
2018-03-26T03:55:07.814Z,9.93
2018-03-26T03:57:39.005Z,9.73
2018-03-26T04:00:07.871Z,10.97
2018-03-26T04:02:37.089Z,10.83
2018-03-26T04:05:05.947Z,10.40
2018-03-26T04:07:34.798Z,11.03
2018-03-26T04:10:03.654Z,11.23
2018-03-26T04:12:32.513Z,10.93
2018-03-26T04:15:02.210Z,10.80
2018-03-26T04:17:31.079Z,11.40
2018-03-26T04:19:59.936Z,12.20
2018-03-26T04:22:29.268Z,11.80
2018-03-26T04:24:58.118Z,11.50
2018-03-26T04:27:27.015Z,10.87
2018-03-26T04:29:56.141Z,12.17
2018-03-26T04:32:24.980Z,11.80
2018-03-26T04:34:54.317Z,12.37
2018-03-26T04:37:23.174Z,12.17
2018-03-26T04:39:52.022Z,11.40
2018-03-26T04:42:20.900Z,11.47
2018-03-26T04:44:49.754Z,11.60
2018-03-26T04:47:19.727Z,11.63
2018-03-26T04:49:48.579Z,11.50
2018-03-26T04:52:17.618Z,12.70
2018-03-26T04:54:47.289Z,11.10
2018-03-26T04:57:16.162Z,11.70
2018-03-26T04:59:45.016Z,11.57
2018-03-26T05:02:14.188Z,11.40
2018-03-26T05:04:43.035Z,11.23
2018-03-26T05:07:11.886Z,11.83
2018-03-26T05:09:41.046Z,11.67
2018-03-26T05:12:09.898Z,12.43
2018-03-26T05:14:38.758Z,11.70
2018-03-26T05:17:07.678Z,12.17
2018-03-26T05:19:36.528Z,12.90
2018-03-26T05:22:05.448Z,12.27
2018-03-26T05:24:34.508Z,11.53
2018-03-26T05:27:03.359Z,11.47
2018-03-26T05:29:32.485Z,11.03
2018-03-26T05:32:01.338Z,10.83
2018-03-26T05:34:30.194Z,11.40
2018-03-26T05:36:59.355Z,11.17
2018-03-26T05:39:28.331Z,12.57
2018-03-26T05:41:57.284Z,10.97
2018-03-26T05:44:26.171Z,12.80
2018-03-26T05:46:55.030Z,11.93
2018-03-26T05:49:24.376Z,11.33
2018-03-26T05:51:53.220Z,12.63
2018-03-26T05:54:22.070Z,12.27
2018-03-26T05:56:51.100Z,12.73
2018-03-26T05:59:19.959Z,13.03
2018-03-26T06:01:48.822Z,10.50
2018-03-26T06:04:19.116Z,10.90
2018-03-26T06:06:47.967Z,11.03
2018-03-26T06:09:16.950Z,11.73
2018-03-26T06:11:47.923Z,9.97
2018-03-26T06:14:18.868Z,10.80
2018-03-26T06:16:53.936Z,10.30
2018-03-26T06:19:22.801Z,10.10
2018-03-26T06:21:51.634Z,11.63
2018-03-26T06:24:20.645Z,11.43
2018-03-26T06:26:49.491Z,11.40
2018-03-26T06:29:18.350Z,10.80
2018-03-26T06:31:47.555Z,11.73
2018-03-26T06:34:16.414Z,11.63
2018-03-26T06:36:51.177Z,12.37
2018-03-26T06:39:29.622Z,12.83
2018-03-26T06:41:58.736Z,13.27
2018-03-26T06:44:27.586Z,12.17
2018-03-26T06:46:56.432Z,12.10
2018-03-26T06:49:25.999Z,14.13
2018-03-26T06:51:54.854Z,12.50
2018-03-26T06:54:23.799Z,12.37
2018-03-26T06:56:52.702Z,12.43
2018-03-26T06:59:21.557Z,12.80
2018-03-26T07:01:50.466Z,11.90
2018-03-26T07:04:19.370Z,12.80
2018-03-26T07:06:48.253Z,13.37
2018-03-26T07:09:17.160Z,14.03
2018-03-26T07:11:46.033Z,13.77
2018-03-26T07:14:14.894Z,14.30
2018-03-26T07:16:43.977Z,14.13
2018-03-26T07:19:13.011Z,14.53
2018-03-26T07:21:42.093Z,12.27
2018-03-26T07:24:10.950Z,14.73
2018-03-26T07:26:39.819Z,12.83
2018-03-26T07:29:09.042Z,14.57
2018-03-26T07:31:37.898Z,16.50
2018-03-26T07:34:06.749Z,16.27
2018-03-26T07:36:35.926Z,16.50
2018-03-26T07:39:04.858Z,16.63
2018-03-26T07:41:33.738Z,17.40
2018-03-26T07:44:03.423Z,16.70
2018-03-26T07:46:32.396Z,17.23
2018-03-26T07:49:01.784Z,16.47
2018-03-26T07:51:30.938Z,17.10
2018-03-26T07:53:59.815Z,22.27
2018-03-26T07:56:28.822Z,18.57
2018-03-26T07:58:58.858Z,19.40
2018-03-26T08:01:27.727Z,19.63
2018-03-26T08:03:56.554Z,22.67
2018-03-26T08:06:25.970Z,24.33
2018-03-26T08:08:54.974Z,23.73
2018-03-26T08:11:23.851Z,24.03
2018-03-26T08:13:52.734Z,22.80
2018-03-26T08:16:21.590Z,23.27
2018-03-26T08:18:50.447Z,24.03
2018-03-26T08:21:19.975Z,24.53
2018-03-26T08:23:48.835Z,26.60
2018-03-26T08:26:17.685Z,24.07
2018-03-26T08:28:46.749Z,24.33
2018-03-26T08:31:15.596Z,24.80
2018-03-26T08:33:44.449Z,26.13
2018-03-26T08:36:13.350Z,25.27
2018-03-26T08:38:42.327Z,26.03
2018-03-26T08:41:11.202Z,24.10
2018-03-26T08:43:40.078Z,25.63
2018-03-26T08:46:08.941Z,26.63
2018-03-26T08:48:38.411Z,27.47
2018-03-26T08:51:07.280Z,26.77
2018-03-26T08:53:36.309Z,28.93
2018-03-26T08:56:05.136Z,29.23
2018-03-26T08:58:33.987Z,29.00
2018-03-26T09:01:04.278Z,31.37
2018-03-26T09:03:33.519Z,33.60
2018-03-26T09:06:02.377Z,32.77
2018-03-26T09:08:31.283Z,34.83
2018-03-26T09:11:00.171Z,35.00
2018-03-26T09:13:29.453Z,36.57
2018-03-26T09:15:58.312Z,33.50
2018-03-26T09:18:27.156Z,35.83
2018-03-26T09:20:56.054Z,35.20
2018-03-26T09:23:24.924Z,33.63
2018-03-26T09:25:53.884Z,35.57
2018-03-26T09:28:22.687Z,35.27
2018-03-26T09:30:51.547Z,34.23
2018-03-26T09:33:20.750Z,35.20
2018-03-26T09:35:49.623Z,35.47
2018-03-26T09:38:18.474Z,34.37
2018-03-26T09:40:47.366Z,34.43
2018-03-26T09:43:16.422Z,33.47
2018-03-26T09:45:45.435Z,33.83
2018-03-26T09:48:14.299Z,35.63
2018-03-26T09:50:43.423Z,35.80
2018-03-26T09:53:12.491Z,34.20
2018-03-26T09:55:41.532Z,35.10
2018-03-26T09:58:11.814Z,34.73
2018-03-26T10:00:46.868Z,35.60
2018-03-26T10:03:15.737Z,35.27
2018-03-26T10:05:44.598Z,35.80
2018-03-26T10:08:13.857Z,36.77
2018-03-26T10:10:42.784Z,35.97
2018-03-26T10:13:11.637Z,35.70
2018-03-26T10:15:41.050Z,37.00
2018-03-26T10:18:09.903Z,36.27
2018-03-26T10:20:38.855Z,37.07
2018-03-26T10:23:07.772Z,36.03
2018-03-26T10:25:36.627Z,34.80
2018-03-26T10:28:05.478Z,33.60
2018-03-26T10:30:34.600Z,33.43
2018-03-26T10:33:03.471Z,34.97
2018-03-26T10:35:32.323Z,33.47
2018-03-26T10:38:01.276Z,34.17
2018-03-26T10:40:30.379Z,34.07
2018-03-26T10:42:59.275Z,33.57
2018-03-26T10:45:28.137Z,36.13
2018-03-26T10:47:56.995Z,36.70
2018-03-26T10:50:25.894Z,37.13
2018-03-26T10:52:55.477Z,36.17
2018-03-26T10:55:24.731Z,35.33
2018-03-26T10:57:53.612Z,35.97
2018-03-26T11:00:22.482Z,35.27
2018-03-26T11:02:51.370Z,36.67
2018-03-26T11:05:20.235Z,36.27
2018-03-26T11:07:49.417Z,37.90
2018-03-26T11:10:18.278Z,38.47
2018-03-26T11:12:47.212Z,37.23
2018-03-26T11:15:16.139Z,38.10
2018-03-26T11:17:45.000Z,37.53
2018-03-26T11:20:13.859Z,38.83
2018-03-26T11:22:42.821Z,38.40
2018-03-26T11:25:11.684Z,38.93
2018-03-26T11:27:40.841Z,38.73
2018-03-26T11:30:09.700Z,38.53
2018-03-26T11:32:38.683Z,39.80
2018-03-26T11:35:07.583Z,39.17
2018-03-26T11:37:36.438Z,41.27
2018-03-26T11:40:05.368Z,39.40
2018-03-26T11:42:34.256Z,39.57
2018-03-26T11:45:03.101Z,39.70
2018-03-26T11:47:31.979Z,39.17
2018-03-26T11:50:01.134Z,39.87
2018-03-26T11:52:30.003Z,38.43
2018-03-26T11:54:59.242Z,39.43
2018-03-26T11:57:28.197Z,38.93
2018-03-26T11:59:57.064Z,39.97
2018-03-26T12:02:25.918Z,37.87
2018-03-26T12:04:54.862Z,39.53
2018-03-26T12:07:23.839Z,39.17
2018-03-26T12:09:52.691Z,39.27
2018-03-26T12:12:22.627Z,39.27
2018-03-26T12:14:53.352Z,40.07
2018-03-26T12:17:23.127Z,39.83
2018-03-26T12:19:58.092Z,38.15
2018-03-26T12:22:26.981Z,38.25
2018-03-26T12:24:58.878Z,36.83
2018-03-26T12:27:27.737Z,37.23
2018-03-26T12:30:02.992Z,37.43
2018-03-26T12:32:31.843Z,36.47
2018-03-26T12:35:07.113Z,36.53
2018-03-26T12:37:35.963Z,35.97
2018-03-26T12:40:04.818Z,35.43
2018-03-26T12:42:33.883Z,36.00
2018-03-26T12:45:08.755Z,35.05
2018-03-26T12:47:38.826Z,33.53
2018-03-26T12:50:07.690Z,35.08
2018-03-26T12:52:44.516Z,32.63
2018-03-26T12:55:14.419Z,36.00
2018-03-26T12:57:49.349Z,33.97
2018-03-26T13:00:18.199Z,34.72
2018-03-26T13:02:47.172Z,33.05
2018-03-26T13:05:16.069Z,33.67
2018-03-26T13:07:44.928Z,35.42
2018-03-26T13:10:13.779Z,36.40
2018-03-26T13:12:42.697Z,34.65
2018-03-26T13:15:11.539Z,33.88
2018-03-26T13:17:40.407Z,35.83
2018-03-26T13:20:10.395Z,35.60
2018-03-26T13:22:39.248Z,36.97
2018-03-26T13:25:08.190Z,33.90
2018-03-26T13:27:37.335Z,35.55
2018-03-26T13:30:06.190Z,33.53
2018-03-26T13:32:35.064Z,33.55
2018-03-26T13:35:04.110Z,34.15
2018-03-26T13:37:32.927Z,32.05
2018-03-26T13:40:01.824Z,34.67
2018-03-26T13:42:30.699Z,34.83
2018-03-26T13:44:59.550Z,33.33
2018-03-26T13:47:28.474Z,33.77
2018-03-26T13:49:57.326Z,35.47
2018-03-26T13:52:26.197Z,33.37
2018-03-26T13:54:56.095Z,33.10
2018-03-26T13:57:25.468Z,33.17
2018-03-26T13:59:54.336Z,34.17
2018-03-26T14:02:23.176Z,33.07
2018-03-26T14:04:52.026Z,34.43
2018-03-26T14:07:20.888Z,32.33
2018-03-26T14:09:55.507Z,33.90
2018-03-26T14:12:30.254Z,35.67
2018-03-26T14:15:05.548Z,34.93
2018-03-26T14:17:40.304Z,35.03
2018-03-26T14:20:09.195Z,33.93
2018-03-26T14:22:38.074Z,33.67
2018-03-26T14:25:06.930Z,34.23
2018-03-26T14:27:35.931Z,34.53
2018-03-26T14:30:04.798Z,35.23
2018-03-26T14:32:33.691Z,34.90
2018-03-26T14:35:08.621Z,37.13
2018-03-26T14:37:37.515Z,36.90
2018-03-26T14:40:06.375Z,38.57
2018-03-26T14:42:35.214Z,38.07
2018-03-26T14:45:04.106Z,39.77
2018-03-26T14:47:32.972Z,37.60
2018-03-26T14:50:01.830Z,39.10
2018-03-26T14:52:30.725Z,38.97
2018-03-26T14:54:59.609Z,38.83
2018-03-26T14:57:29.299Z,36.97
2018-03-26T14:59:59.425Z,42.43
2018-03-26T15:02:28.282Z,45.13
2018-03-26T15:04:57.219Z,41.40
2018-03-26T15:07:26.088Z,44.60
2018-03-26T15:09:54.938Z,45.70
2018-03-26T15:12:23.799Z,45.03
2018-03-26T15:14:52.662Z,42.63
2018-03-26T15:17:21.527Z,43.60
2018-03-26T15:19:51.174Z,41.30
2018-03-26T15:22:20.227Z,44.80
2018-03-26T15:24:49.283Z,39.93
2018-03-26T15:27:18.681Z,43.10
2018-03-26T15:29:47.465Z,39.23
2018-03-26T15:32:16.330Z,39.47
2018-03-26T15:34:45.544Z,39.80
2018-03-26T15:37:14.400Z,40.93
2018-03-26T15:39:43.268Z,39.37
2018-03-26T15:42:12.208Z,43.37
2018-03-26T15:44:41.065Z,37.17
2018-03-26T15:47:10.074Z,40.53
2018-03-26T15:49:38.988Z,37.20
2018-03-26T15:52:07.863Z,40.57
2018-03-26T15:54:36.876Z,36.40
2018-03-26T15:57:06.585Z,40.63
2018-03-26T15:59:36.279Z,39.73
2018-03-26T16:02:04.744Z,36.13
2018-03-26T16:04:33.631Z,35.87
2018-03-26T16:07:02.511Z,36.83
2018-03-26T16:09:31.366Z,37.23
2018-03-26T16:12:00.255Z,35.80
2018-03-26T16:14:29.119Z,39.27
2018-03-26T16:16:58.137Z,36.20
2018-03-26T16:19:26.996Z,34.87
2018-03-26T16:21:55.843Z,36.67
2018-03-26T16:24:24.736Z,35.07
2018-03-26T16:26:53.592Z,36.57
2018-03-26T16:29:22.792Z,35.27
2018-03-26T16:31:51.660Z,36.20
2018-03-26T16:34:20.522Z,36.07
2018-03-26T16:36:49.407Z,37.53
2018-03-26T16:39:18.627Z,40.70
2018-03-26T16:41:47.764Z,39.70
2018-03-26T16:44:16.712Z,38.47
2018-03-26T16:46:45.578Z,39.10
2018-03-26T16:49:14.690Z,37.60
2018-03-26T16:51:43.563Z,37.57
2018-03-26T16:54:12.430Z,36.03
2018-03-26T16:56:41.712Z,35.63
2018-03-26T16:59:12.053Z,41.07
2018-03-26T17:01:41.139Z,46.33
2018-03-26T17:04:11.363Z,38.70
2018-03-26T17:06:40.349Z,41.97
2018-03-26T17:09:09.217Z,40.30
2018-03-26T17:11:38.128Z,36.53
2018-03-26T17:14:07.173Z,36.57
2018-03-26T17:16:36.030Z,33.87
2018-03-26T17:19:05.199Z,29.67
2018-03-26T17:21:34.199Z,30.20
2018-03-26T17:24:03.181Z,28.03
2018-03-26T17:26:32.120Z,28.40
2018-03-26T17:29:01.012Z,23.27
2018-03-26T17:31:29.822Z,16.07
2018-03-26T17:34:00.066Z,15.13
2018-03-26T17:36:28.936Z,16.27
2018-03-26T17:38:57.809Z,17.93
2018-03-26T17:41:26.742Z,19.43
2018-03-26T17:43:55.586Z,20.43
2018-03-26T17:46:24.438Z,21.63
2018-03-26T17:48:53.652Z,21.00
2018-03-26T17:51:22.510Z,23.47
2018-03-26T17:53:51.549Z,22.07
2018-03-26T17:56:20.474Z,22.43
2018-03-26T17:58:49.345Z,32.37
2018-03-26T18:01:18.323Z,24.17
2018-03-26T18:03:47.897Z,30.53
2018-03-26T18:06:16.766Z,36.47
2018-03-26T18:08:45.668Z,25.60
2018-03-26T18:11:15.012Z,30.07
2018-03-26T18:13:43.913Z,29.40
2018-03-26T18:16:12.768Z,28.30
2018-03-26T18:18:41.672Z,29.63
2018-03-26T18:21:10.585Z,26.03
2018-03-26T18:23:39.447Z,26.17
2018-03-26T18:26:08.344Z,24.40
2018-03-26T18:28:37.207Z,21.13
2018-03-26T18:31:06.106Z,20.20
2018-03-26T18:33:34.980Z,19.77
2018-03-26T18:36:03.879Z,21.27
2018-03-26T18:38:32.755Z,19.53
2018-03-26T18:41:01.663Z,18.87
2018-03-26T18:43:30.518Z,18.90
2018-03-26T18:45:59.390Z,20.53
2018-03-26T18:48:28.382Z,21.40
2018-03-26T18:50:57.246Z,20.50
2018-03-26T18:53:26.126Z,20.10
2018-03-26T18:55:55.015Z,20.33
2018-03-26T18:58:23.989Z,19.53
2018-03-26T19:00:52.880Z,22.43
2018-03-26T19:03:21.892Z,19.30
2018-03-26T19:05:51.728Z,20.30
2018-03-26T19:08:20.667Z,22.67
2018-03-26T19:10:49.536Z,19.37
2018-03-26T19:13:18.394Z,18.83
2018-03-26T19:15:47.299Z,21.93
2018-03-26T19:18:16.171Z,24.47
2018-03-26T19:20:45.136Z,30.37
2018-03-26T19:23:13.999Z,34.87
2018-03-26T19:25:42.922Z,31.47
2018-03-26T19:28:11.770Z,32.23
2018-03-26T19:30:40.649Z,32.47
2018-03-26T19:33:09.571Z,36.70
2018-03-26T19:35:38.481Z,34.50
2018-03-26T19:38:07.354Z,36.23
2018-03-26T19:40:36.469Z,38.77
2018-03-26T19:43:05.380Z,31.83
2018-03-26T19:45:34.256Z,36.10
2018-03-26T19:48:03.186Z,29.37
2018-03-26T19:50:32.054Z,31.87
2018-03-26T19:53:00.938Z,28.83
2018-03-26T19:55:29.835Z,26.33
2018-03-26T19:58:01.167Z,22.50
2018-03-26T20:00:30.032Z,20.70
2018-03-26T20:02:58.995Z,19.90
2018-03-26T20:05:27.842Z,18.20
2018-03-26T20:07:56.783Z,18.57
2018-03-26T20:10:25.829Z,20.67
2018-03-26T20:12:54.738Z,21.63
2018-03-26T20:15:23.595Z,19.40
2018-03-26T20:17:52.464Z,21.00
2018-03-26T20:20:21.627Z,23.27
2018-03-26T20:22:50.478Z,22.57
2018-03-26T20:25:19.414Z,22.57
2018-03-26T20:27:48.295Z,24.30
2018-03-26T20:30:17.170Z,25.13
2018-03-26T20:32:46.082Z,24.37
2018-03-26T20:35:14.944Z,26.77
2018-03-26T20:37:43.830Z,28.10
2018-03-26T20:40:12.737Z,28.83
2018-03-26T20:42:41.592Z,29.13
2018-03-26T20:45:10.454Z,30.10
2018-03-26T20:47:39.335Z,29.90
2018-03-26T20:50:08.188Z,27.37
2018-03-26T20:52:37.052Z,26.40
2018-03-26T20:55:06.985Z,23.83
2018-03-26T20:57:35.806Z,26.77
2018-03-26T21:00:05.135Z,29.23
2018-03-26T21:02:33.995Z,27.53
2018-03-26T21:05:02.976Z,23.43
2018-03-26T21:07:31.864Z,21.63
2018-03-26T21:10:02.221Z,18.87
2018-03-26T21:12:31.876Z,17.63
2018-03-26T21:15:00.727Z,20.13
2018-03-26T21:17:29.843Z,21.03
2018-03-26T21:19:58.699Z,21.20
2018-03-26T21:22:27.571Z,21.97
2018-03-26T21:24:56.713Z,22.03
2018-03-26T21:27:25.576Z,20.07
2018-03-26T21:29:54.458Z,21.10
2018-03-26T21:32:23.371Z,21.57
2018-03-26T21:34:52.227Z,22.70
2018-03-26T21:37:21.092Z,22.37
2018-03-26T21:39:50.276Z,19.20
2018-03-26T21:42:19.112Z,23.63
2018-03-26T21:44:47.978Z,25.73
2018-03-26T21:47:17.650Z,22.80
2018-03-26T21:49:46.509Z,23.87
2018-03-26T21:52:15.417Z,25.57
2018-03-26T21:54:44.383Z,25.57
2018-03-26T21:57:13.620Z,22.67
2018-03-26T21:59:43.943Z,24.10
2018-03-26T22:02:12.783Z,28.03
2018-03-26T22:04:41.711Z,28.53
2018-03-26T22:07:10.582Z,27.17
2018-03-26T22:09:39.494Z,31.43
2018-03-26T22:12:09.024Z,31.33
2018-03-26T22:14:37.881Z,25.87
2018-03-26T22:17:06.739Z,27.23
2018-03-26T22:19:35.640Z,27.73
2018-03-26T22:22:04.690Z,28.00
2018-03-26T22:24:33.552Z,29.20
2018-03-26T22:27:02.563Z,25.43
2018-03-26T22:29:31.421Z,29.53
2018-03-26T22:32:00.338Z,27.97
2018-03-26T22:34:29.196Z,26.53
2018-03-26T22:36:58.022Z,24.87
2018-03-26T22:39:26.903Z,23.07
2018-03-26T22:41:55.766Z,19.83
2018-03-26T22:44:24.720Z,20.50
2018-03-26T22:46:53.854Z,20.43
2018-03-26T22:49:22.708Z,20.87
2018-03-26T22:51:51.570Z,20.97
2018-03-26T22:54:21.496Z,25.77
2018-03-26T22:56:50.381Z,23.47
2018-03-26T22:59:19.247Z,25.80
2018-03-26T23:01:48.358Z,23.17
2018-03-26T23:04:17.224Z,23.57
2018-03-26T23:06:46.276Z,23.63
2018-03-26T23:09:15.161Z,19.07
2018-03-26T23:11:44.060Z,19.97
2018-03-26T23:14:13.927Z,17.17
2018-03-26T23:16:42.787Z,20.87
2018-03-26T23:19:11.653Z,23.77
2018-03-26T23:21:40.560Z,27.43
2018-03-26T23:24:09.422Z,25.67
2018-03-26T23:26:38.282Z,30.83
2018-03-26T23:29:08.127Z,23.77
2018-03-26T23:31:36.982Z,28.37
2018-03-26T23:34:05.839Z,26.43
2018-03-26T23:36:35.695Z,24.57
2018-03-26T23:39:05.376Z,22.90
2018-03-26T23:41:34.314Z,26.63
2018-03-26T23:44:03.689Z,21.33
2018-03-26T23:46:32.543Z,26.80
2018-03-26T23:49:01.483Z,23.30
2018-03-26T23:51:30.643Z,24.00
2018-03-26T23:53:59.500Z,23.10
2018-03-26T23:56:28.328Z,23.43
